sensor_id;sensor_type;location;lat;lon;timestamp;temperature;humidity
38131;DHT22;23947;51.894;4.622;2023-03-17T00:01:07;9.10;1.40
38131;DHT22;23947;51.894;4.622;2023-03-17T00:03:37;9.10;1.40
38131;DHT22;23947;51.894;4.622;2023-03-17T00:06:04;9.10;1.40
38131;DHT22;23947;51.894;4.622;2023-03-17T00:08:33;9.10;1.40
38131;DHT22;23947;51.894;4.622;2023-03-17T00:11:00;9.10;1.40
38131;DHT22;23947;51.894;4.622;2023-03-17T00:13:26;9.10;1.40
38131;DHT22;23947;51.894;4.622;2023-03-17T00:15:53;9.10;1.40
38131;DHT22;23947;51.894;4.622;2023-03-17T00:18:19;9.10;1.40
38131;DHT22;23947;51.894;4.622;2023-03-17T00:20:46;9.00;1.40
38131;DHT22;23947;51.894;4.622;2023-03-17T00:23:16;9.00;1.40
38131;DHT22;23947;51.894;4.622;2023-03-17T00:25:42;9.00;1.40
38131;DHT22;23947;51.894;4.622;2023-03-17T00:28:23;8.90;1.40
38131;DHT22;23947;51.894;4.622;2023-03-17T00:30:56;8.90;1.40
38131;DHT22;23947;51.894;4.622;2023-03-17T00:33:23;8.90;1.40
38131;DHT22;23947;51.894;4.622;2023-03-17T00:35:50;8.90;1.40
38131;DHT22;23947;51.894;4.622;2023-03-17T00:38:17;8.80;1.40
38131;DHT22;23947;51.894;4.622;2023-03-17T00:40:43;8.80;1.40
38131;DHT22;23947;51.894;4.622;2023-03-17T00:43:12;8.80;1.40
38131;DHT22;23947;51.894;4.622;2023-03-17T00:45:38;8.80;1.40
38131;DHT22;23947;51.894;4.622;2023-03-17T00:48:04;8.70;1.40
38131;DHT22;23947;51.894;4.622;2023-03-17T00:50:34;8.70;1.40
38131;DHT22;23947;51.894;4.622;2023-03-17T00:53:00;8.70;1.40
38131;DHT22;23947;51.894;4.622;2023-03-17T00:55:26;8.70;1.40
38131;DHT22;23947;51.894;4.622;2023-03-17T00:57:52;8.70;1.40
38131;DHT22;23947;51.894;4.622;2023-03-17T01:00:19;8.70;1.40
38131;DHT22;23947;51.894;4.622;2023-03-17T01:02:46;8.70;1.40
38131;DHT22;23947;51.894;4.622;2023-03-17T01:05:12;8.70;1.40
38131;DHT22;23947;51.894;4.622;2023-03-17T01:07:37;8.70;1.40
38131;DHT22;23947;51.894;4.622;2023-03-17T01:10:12;8.70;1.40
38131;DHT22;23947;51.894;4.622;2023-03-17T01:12:38;8.70;1.40
38131;DHT22;23947;51.894;4.622;2023-03-17T01:15:04;8.70;1.40
38131;DHT22;23947;51.894;4.622;2023-03-17T01:17:30;8.60;1.40
38131;DHT22;23947;51.894;4.622;2023-03-17T01:19:55;8.60;1.40
38131;DHT22;23947;51.894;4.622;2023-03-17T01:22:22;8.50;1.40
38131;DHT22;23947;51.894;4.622;2023-03-17T01:24:47;8.50;1.40
38131;DHT22;23947;51.894;4.622;2023-03-17T01:27:13;8.50;1.40
38131;DHT22;23947;51.894;4.622;2023-03-17T01:29:39;8.50;1.40
38131;DHT22;23947;51.894;4.622;2023-03-17T01:32:04;8.50;1.40
38131;DHT22;23947;51.894;4.622;2023-03-17T01:34:30;8.50;1.40
38131;DHT22;23947;51.894;4.622;2023-03-17T01:36:56;8.50;1.40
38131;DHT22;23947;51.894;4.622;2023-03-17T01:39:22;8.40;1.40
38131;DHT22;23947;51.894;4.622;2023-03-17T01:41:48;8.50;1.40
38131;DHT22;23947;51.894;4.622;2023-03-17T01:44:15;8.50;1.40
38131;DHT22;23947;51.894;4.622;2023-03-17T01:46:41;8.50;1.40
38131;DHT22;23947;51.894;4.622;2023-03-17T01:51:34;8.40;1.40
38131;DHT22;23947;51.894;4.622;2023-03-17T01:54:02;8.40;1.40
38131;DHT22;23947;51.894;4.622;2023-03-17T01:56:29;8.40;1.40
38131;DHT22;23947;51.894;4.622;2023-03-17T01:58:55;8.40;1.40
38131;DHT22;23947;51.894;4.622;2023-03-17T02:01:26;8.40;1.40
38131;DHT22;23947;51.894;4.622;2023-03-17T02:03:53;8.40;1.40
38131;DHT22;23947;51.894;4.622;2023-03-17T02:06:19;8.40;1.40
38131;DHT22;23947;51.894;4.622;2023-03-17T02:08:44;8.40;1.40
38131;DHT22;23947;51.894;4.622;2023-03-17T02:11:10;8.40;1.40
38131;DHT22;23947;51.894;4.622;2023-03-17T02:13:36;8.40;1.40
38131;DHT22;23947;51.894;4.622;2023-03-17T02:16:01;8.50;1.40
38131;DHT22;23947;51.894;4.622;2023-03-17T02:18:28;8.50;1.40
38131;DHT22;23947;51.894;4.622;2023-03-17T02:23:22;8.50;1.40
38131;DHT22;23947;51.894;4.622;2023-03-17T02:25:49;8.50;1.40
38131;DHT22;23947;51.894;4.622;2023-03-17T02:28:16;8.50;1.40
38131;DHT22;23947;51.894;4.622;2023-03-17T02:30:43;8.50;1.40
38131;DHT22;23947;51.894;4.622;2023-03-17T02:33:09;8.50;1.40
38131;DHT22;23947;51.894;4.622;2023-03-17T02:35:36;8.50;1.40
38131;DHT22;23947;51.894;4.622;2023-03-17T02:38:02;8.50;1.40
38131;DHT22;23947;51.894;4.622;2023-03-17T02:40:27;8.60;1.40
38131;DHT22;23947;51.894;4.622;2023-03-17T02:42:53;8.60;1.40
38131;DHT22;23947;51.894;4.622;2023-03-17T02:45:18;8.60;1.40
38131;DHT22;23947;51.894;4.622;2023-03-17T02:47:44;8.60;1.40
38131;DHT22;23947;51.894;4.622;2023-03-17T02:50:16;8.60;1.40
38131;DHT22;23947;51.894;4.622;2023-03-17T02:52:42;8.60;1.40
38131;DHT22;23947;51.894;4.622;2023-03-17T02:55:07;8.60;1.40
38131;DHT22;23947;51.894;4.622;2023-03-17T02:57:34;8.60;1.40
38131;DHT22;23947;51.894;4.622;2023-03-17T03:00:01;8.60;1.40
38131;DHT22;23947;51.894;4.622;2023-03-17T03:02:27;8.70;1.40
38131;DHT22;23947;51.894;4.622;2023-03-17T03:04:52;8.60;1.40
38131;DHT22;23947;51.894;4.622;2023-03-17T03:07:18;8.70;1.40
38131;DHT22;23947;51.894;4.622;2023-03-17T03:09:44;8.70;1.40
38131;DHT22;23947;51.894;4.622;2023-03-17T03:12:09;8.70;1.40
38131;DHT22;23947;51.894;4.622;2023-03-17T03:14:35;8.70;1.40
38131;DHT22;23947;51.894;4.622;2023-03-17T03:17:01;8.70;1.40
38131;DHT22;23947;51.894;4.622;2023-03-17T03:19:28;8.70;1.40
38131;DHT22;23947;51.894;4.622;2023-03-17T03:21:54;8.70;1.40
38131;DHT22;23947;51.894;4.622;2023-03-17T03:24:19;8.70;1.40
38131;DHT22;23947;51.894;4.622;2023-03-17T03:26:45;8.70;1.40
38131;DHT22;23947;51.894;4.622;2023-03-17T03:29:10;8.70;1.40
38131;DHT22;23947;51.894;4.622;2023-03-17T03:31:36;8.70;1.40
38131;DHT22;23947;51.894;4.622;2023-03-17T03:34:01;8.80;1.40
38131;DHT22;23947;51.894;4.622;2023-03-17T03:36:27;8.80;1.40
38131;DHT22;23947;51.894;4.622;2023-03-17T03:38:53;8.80;1.40
38131;DHT22;23947;51.894;4.622;2023-03-17T03:41:18;8.80;1.40
38131;DHT22;23947;51.894;4.622;2023-03-17T03:43:43;8.80;1.40
38131;DHT22;23947;51.894;4.622;2023-03-17T03:46:09;8.80;1.40
38131;DHT22;23947;51.894;4.622;2023-03-17T03:48:35;8.80;1.40
38131;DHT22;23947;51.894;4.622;2023-03-17T03:51:01;8.90;1.40
38131;DHT22;23947;51.894;4.622;2023-03-17T03:53:27;8.90;1.40
38131;DHT22;23947;51.894;4.622;2023-03-17T03:55:52;9.00;1.40
38131;DHT22;23947;51.894;4.622;2023-03-17T03:58:18;9.00;1.40
38131;DHT22;23947;51.894;4.622;2023-03-17T04:00:44;9.00;1.40
38131;DHT22;23947;51.894;4.622;2023-03-17T04:03:09;9.00;1.40
38131;DHT22;23947;51.894;4.622;2023-03-17T04:05:35;9.00;1.40
38131;DHT22;23947;51.894;4.622;2023-03-17T04:08:00;9.00;1.40
38131;DHT22;23947;51.894;4.622;2023-03-17T04:10:26;9.00;1.40
38131;DHT22;23947;51.894;4.622;2023-03-17T04:12:51;9.10;1.40
38131;DHT22;23947;51.894;4.622;2023-03-17T04:15:18;9.10;1.40
38131;DHT22;23947;51.894;4.622;2023-03-17T04:17:43;9.20;1.40
38131;DHT22;23947;51.894;4.622;2023-03-17T04:20:09;9.20;1.40
38131;DHT22;23947;51.894;4.622;2023-03-17T04:22:35;9.20;1.40
38131;DHT22;23947;51.894;4.622;2023-03-17T04:25:01;9.20;1.40
38131;DHT22;23947;51.894;4.622;2023-03-17T04:27:26;9.20;1.40
38131;DHT22;23947;51.894;4.622;2023-03-17T04:29:52;9.20;1.40
38131;DHT22;23947;51.894;4.622;2023-03-17T04:32:18;9.20;1.40
38131;DHT22;23947;51.894;4.622;2023-03-17T04:34:44;9.10;1.40
38131;DHT22;23947;51.894;4.622;2023-03-17T04:37:10;9.10;1.40
38131;DHT22;23947;51.894;4.622;2023-03-17T04:39:35;9.10;1.40
38131;DHT22;23947;51.894;4.622;2023-03-17T04:42:01;9.10;1.40
38131;DHT22;23947;51.894;4.622;2023-03-17T04:44:27;9.10;1.40
38131;DHT22;23947;51.894;4.622;2023-03-17T04:46:52;9.10;1.40
38131;DHT22;23947;51.894;4.622;2023-03-17T04:49:18;9.20;1.40
38131;DHT22;23947;51.894;4.622;2023-03-17T04:51:43;9.20;1.40
38131;DHT22;23947;51.894;4.622;2023-03-17T04:54:09;9.10;1.40
38131;DHT22;23947;51.894;4.622;2023-03-17T04:56:35;9.10;1.40
38131;DHT22;23947;51.894;4.622;2023-03-17T04:59:01;9.10;1.40
38131;DHT22;23947;51.894;4.622;2023-03-17T05:01:27;9.20;1.40
38131;DHT22;23947;51.894;4.622;2023-03-17T05:03:52;9.20;1.40
38131;DHT22;23947;51.894;4.622;2023-03-17T05:06:18;9.20;1.40
38131;DHT22;23947;51.894;4.622;2023-03-17T05:08:44;9.10;1.40
38131;DHT22;23947;51.894;4.622;2023-03-17T05:11:10;9.10;1.40
38131;DHT22;23947;51.894;4.622;2023-03-17T05:13:36;9.00;1.40
38131;DHT22;23947;51.894;4.622;2023-03-17T05:16:01;9.00;1.40
38131;DHT22;23947;51.894;4.622;2023-03-17T05:18:27;9.00;1.40
38131;DHT22;23947;51.894;4.622;2023-03-17T05:20:52;9.00;1.40
38131;DHT22;23947;51.894;4.622;2023-03-17T05:23:18;8.90;1.40
38131;DHT22;23947;51.894;4.622;2023-03-17T05:25:45;8.90;1.40
38131;DHT22;23947;51.894;4.622;2023-03-17T05:28:11;8.90;1.40
38131;DHT22;23947;51.894;4.622;2023-03-17T05:30:36;8.90;1.40
38131;DHT22;23947;51.894;4.622;2023-03-17T05:33:02;8.80;1.40
38131;DHT22;23947;51.894;4.622;2023-03-17T05:35:27;8.90;1.40
38131;DHT22;23947;51.894;4.622;2023-03-17T05:37:53;8.90;1.40
38131;DHT22;23947;51.894;4.622;2023-03-17T05:40:18;8.80;1.40
38131;DHT22;23947;51.894;4.622;2023-03-17T05:42:44;8.80;1.40
38131;DHT22;23947;51.894;4.622;2023-03-17T05:45:10;8.80;1.40
38131;DHT22;23947;51.894;4.622;2023-03-17T05:47:35;8.70;1.40
38131;DHT22;23947;51.894;4.622;2023-03-17T05:50:02;8.70;1.40
38131;DHT22;23947;51.894;4.622;2023-03-17T05:52:29;8.60;1.40
38131;DHT22;23947;51.894;4.622;2023-03-17T05:54:55;8.60;1.40
38131;DHT22;23947;51.894;4.622;2023-03-17T05:57:21;8.60;1.40
38131;DHT22;23947;51.894;4.622;2023-03-17T05:59:47;8.70;1.40
38131;DHT22;23947;51.894;4.622;2023-03-17T06:02:12;8.60;1.40
38131;DHT22;23947;51.894;4.622;2023-03-17T06:04:38;8.70;1.40
38131;DHT22;23947;51.894;4.622;2023-03-17T06:07:05;8.70;1.40
38131;DHT22;23947;51.894;4.622;2023-03-17T06:09:31;8.70;1.40
38131;DHT22;23947;51.894;4.622;2023-03-17T06:11:57;8.60;1.40
38131;DHT22;23947;51.894;4.622;2023-03-17T06:14:22;8.60;1.40
38131;DHT22;23947;51.894;4.622;2023-03-17T06:16:48;8.60;1.40
38131;DHT22;23947;51.894;4.622;2023-03-17T06:19:13;8.60;1.40
38131;DHT22;23947;51.894;4.622;2023-03-17T06:21:39;8.60;1.40
38131;DHT22;23947;51.894;4.622;2023-03-17T06:24:05;8.70;1.40
38131;DHT22;23947;51.894;4.622;2023-03-17T06:26:31;8.70;1.40
38131;DHT22;23947;51.894;4.622;2023-03-17T06:28:57;8.70;1.40
38131;DHT22;23947;51.894;4.622;2023-03-17T06:31:22;8.70;1.40
38131;DHT22;23947;51.894;4.622;2023-03-17T06:33:51;8.70;1.40
38131;DHT22;23947;51.894;4.622;2023-03-17T06:36:17;8.70;1.40
38131;DHT22;23947;51.894;4.622;2023-03-17T06:38:42;8.70;1.40
38131;DHT22;23947;51.894;4.622;2023-03-17T06:41:08;8.70;1.40
38131;DHT22;23947;51.894;4.622;2023-03-17T06:43:34;8.80;1.40
38131;DHT22;23947;51.894;4.622;2023-03-17T06:45:59;8.80;1.40
38131;DHT22;23947;51.894;4.622;2023-03-17T06:48:25;8.80;1.40
38131;DHT22;23947;51.894;4.622;2023-03-17T06:50:51;8.80;1.40
38131;DHT22;23947;51.894;4.622;2023-03-17T06:53:16;8.90;1.40
38131;DHT22;23947;51.894;4.622;2023-03-17T06:55:42;8.90;1.40
38131;DHT22;23947;51.894;4.622;2023-03-17T06:58:08;8.90;1.40
38131;DHT22;23947;51.894;4.622;2023-03-17T07:00:35;9.00;1.40
38131;DHT22;23947;51.894;4.622;2023-03-17T07:03:02;9.00;1.40
38131;DHT22;23947;51.894;4.622;2023-03-17T07:05:29;9.10;1.40
38131;DHT22;23947;51.894;4.622;2023-03-17T07:07:54;9.10;1.40
38131;DHT22;23947;51.894;4.622;2023-03-17T07:10:20;9.10;1.40
38131;DHT22;23947;51.894;4.622;2023-03-17T07:12:47;9.10;1.40
38131;DHT22;23947;51.894;4.622;2023-03-17T07:15:13;9.20;1.40
38131;DHT22;23947;51.894;4.622;2023-03-17T07:17:39;9.30;1.40
38131;DHT22;23947;51.894;4.622;2023-03-17T07:20:05;9.30;1.40
38131;DHT22;23947;51.894;4.622;2023-03-17T07:22:31;9.30;1.40
38131;DHT22;23947;51.894;4.622;2023-03-17T07:24:57;9.30;1.40
38131;DHT22;23947;51.894;4.622;2023-03-17T07:27:22;9.30;1.40
38131;DHT22;23947;51.894;4.622;2023-03-17T07:29:49;9.30;1.40
38131;DHT22;23947;51.894;4.622;2023-03-17T07:32:15;9.40;1.40
38131;DHT22;23947;51.894;4.622;2023-03-17T07:34:41;9.40;1.40
38131;DHT22;23947;51.894;4.622;2023-03-17T07:37:06;9.40;1.40
38131;DHT22;23947;51.894;4.622;2023-03-17T07:39:32;9.50;1.40
38131;DHT22;23947;51.894;4.622;2023-03-17T07:41:57;9.50;1.40
38131;DHT22;23947;51.894;4.622;2023-03-17T07:44:23;9.60;1.40
38131;DHT22;23947;51.894;4.622;2023-03-17T07:46:49;9.70;1.40
38131;DHT22;23947;51.894;4.622;2023-03-17T07:49:15;9.80;1.40
38131;DHT22;23947;51.894;4.622;2023-03-17T07:51:41;9.80;1.40
38131;DHT22;23947;51.894;4.622;2023-03-17T07:54:08;9.90;1.40
38131;DHT22;23947;51.894;4.622;2023-03-17T07:56:34;9.90;1.40
38131;DHT22;23947;51.894;4.622;2023-03-17T07:59:00;10.00;1.40
38131;DHT22;23947;51.894;4.622;2023-03-17T08:01:26;10.00;1.40
38131;DHT22;23947;51.894;4.622;2023-03-17T08:03:52;10.10;1.40
38131;DHT22;23947;51.894;4.622;2023-03-17T08:06:17;10.20;1.40
38131;DHT22;23947;51.894;4.622;2023-03-17T08:08:43;10.20;1.40
38131;DHT22;23947;51.894;4.622;2023-03-17T08:11:08;10.30;1.40
38131;DHT22;23947;51.894;4.622;2023-03-17T08:13:34;10.30;1.40
38131;DHT22;23947;51.894;4.622;2023-03-17T08:16:00;10.40;1.40
38131;DHT22;23947;51.894;4.622;2023-03-17T08:18:26;10.40;1.40
38131;DHT22;23947;51.894;4.622;2023-03-17T08:20:51;10.40;1.40
38131;DHT22;23947;51.894;4.622;2023-03-17T08:23:17;10.50;1.40
38131;DHT22;23947;51.894;4.622;2023-03-17T08:25:43;10.50;1.40
38131;DHT22;23947;51.894;4.622;2023-03-17T08:28:09;10.60;1.40
38131;DHT22;23947;51.894;4.622;2023-03-17T08:30:34;10.60;1.40
38131;DHT22;23947;51.894;4.622;2023-03-17T08:33:01;10.60;1.40
38131;DHT22;23947;51.894;4.622;2023-03-17T08:35:28;10.60;1.40
38131;DHT22;23947;51.894;4.622;2023-03-17T08:37:55;10.70;1.40
38131;DHT22;23947;51.894;4.622;2023-03-17T08:40:20;10.70;1.40
38131;DHT22;23947;51.894;4.622;2023-03-17T08:42:47;10.70;1.40
38131;DHT22;23947;51.894;4.622;2023-03-17T08:45:13;10.80;1.40
38131;DHT22;23947;51.894;4.622;2023-03-17T08:47:39;10.80;1.40
38131;DHT22;23947;51.894;4.622;2023-03-17T08:50:06;10.80;1.40
38131;DHT22;23947;51.894;4.622;2023-03-17T08:52:32;10.80;1.40
38131;DHT22;23947;51.894;4.622;2023-03-17T08:54:58;10.80;1.40
38131;DHT22;23947;51.894;4.622;2023-03-17T08:57:23;10.90;1.40
38131;DHT22;23947;51.894;4.622;2023-03-17T08:59:49;10.90;1.40
38131;DHT22;23947;51.894;4.622;2023-03-17T09:02:15;10.90;1.40
38131;DHT22;23947;51.894;4.622;2023-03-17T09:04:41;11.00;1.40
38131;DHT22;23947;51.894;4.622;2023-03-17T09:07:06;11.10;1.40
38131;DHT22;23947;51.894;4.622;2023-03-17T09:09:32;11.00;1.40
38131;DHT22;23947;51.894;4.622;2023-03-17T09:11:59;11.10;1.40
38131;DHT22;23947;51.894;4.622;2023-03-17T09:14:26;11.20;1.40
38131;DHT22;23947;51.894;4.622;2023-03-17T09:16:51;11.20;1.40
38131;DHT22;23947;51.894;4.622;2023-03-17T09:19:17;11.20;1.40
38131;DHT22;23947;51.894;4.622;2023-03-17T09:21:43;11.30;1.40
38131;DHT22;23947;51.894;4.622;2023-03-17T09:24:08;11.30;1.40
38131;DHT22;23947;51.894;4.622;2023-03-17T09:26:34;11.40;1.40
38131;DHT22;23947;51.894;4.622;2023-03-17T09:29:00;11.40;1.40
38131;DHT22;23947;51.894;4.622;2023-03-17T09:31:26;11.50;1.40
38131;DHT22;23947;51.894;4.622;2023-03-17T09:33:52;11.50;1.40
38131;DHT22;23947;51.894;4.622;2023-03-17T09:36:17;11.60;1.40
38131;DHT22;23947;51.894;4.622;2023-03-17T09:38:43;11.60;1.40
38131;DHT22;23947;51.894;4.622;2023-03-17T09:46:39;11.90;1.40
38131;DHT22;23947;51.894;4.622;2023-03-17T09:49:17;12.00;1.40
38131;DHT22;23947;51.894;4.622;2023-03-17T09:51:44;12.20;1.40
38131;DHT22;23947;51.894;4.622;2023-03-17T09:59:41;12.30;1.40
38131;DHT22;23947;51.894;4.622;2023-03-17T10:02:16;12.40;1.40
38131;DHT22;23947;51.894;4.622;2023-03-17T10:04:42;12.40;1.40
38131;DHT22;23947;51.894;4.622;2023-03-17T10:07:09;12.50;1.40
38131;DHT22;23947;51.894;4.622;2023-03-17T10:12:03;12.60;1.40
38131;DHT22;23947;51.894;4.622;2023-03-17T10:14:36;12.60;1.40
38131;DHT22;23947;51.894;4.622;2023-03-17T10:19:40;12.60;1.40
38131;DHT22;23947;51.894;4.622;2023-03-17T10:24:42;12.70;1.40
38131;DHT22;23947;51.894;4.622;2023-03-17T10:27:10;12.80;1.40
38131;DHT22;23947;51.894;4.622;2023-03-17T10:29:36;12.80;1.40
38131;DHT22;23947;51.894;4.622;2023-03-17T10:32:02;13.00;1.40
38131;DHT22;23947;51.894;4.622;2023-03-17T10:34:32;13.00;1.40
38131;DHT22;23947;51.894;4.622;2023-03-17T10:37:00;13.00;1.40
38131;DHT22;23947;51.894;4.622;2023-03-17T10:39:25;13.10;1.40
38131;DHT22;23947;51.894;4.622;2023-03-17T10:41:53;13.20;1.40
38131;DHT22;23947;51.894;4.622;2023-03-17T10:44:21;13.20;1.40
38131;DHT22;23947;51.894;4.622;2023-03-17T10:46:53;13.20;1.40
38131;DHT22;23947;51.894;4.622;2023-03-17T10:49:19;13.20;1.40
38131;DHT22;23947;51.894;4.622;2023-03-17T10:51:47;13.20;1.40
38131;DHT22;23947;51.894;4.622;2023-03-17T10:54:18;13.20;1.40
38131;DHT22;23947;51.894;4.622;2023-03-17T10:56:45;13.20;1.40
38131;DHT22;23947;51.894;4.622;2023-03-17T10:59:19;13.30;1.40
38131;DHT22;23947;51.894;4.622;2023-03-17T11:01:52;13.20;1.40
38131;DHT22;23947;51.894;4.622;2023-03-17T11:06:50;13.40;1.40
38131;DHT22;23947;51.894;4.622;2023-03-17T11:09:17;13.40;1.40
38131;DHT22;23947;51.894;4.622;2023-03-17T11:11:44;13.50;1.40
38131;DHT22;23947;51.894;4.622;2023-03-17T11:14:14;13.50;1.40
38131;DHT22;23947;51.894;4.622;2023-03-17T11:19:15;13.50;1.40
38131;DHT22;23947;51.894;4.622;2023-03-17T11:24:13;13.80;1.40
38131;DHT22;23947;51.894;4.622;2023-03-17T11:31:39;14.30;1.40
38131;DHT22;23947;51.894;4.622;2023-03-17T11:34:12;14.30;1.40
38131;DHT22;23947;51.894;4.622;2023-03-17T11:36:46;14.40;1.40
38131;DHT22;23947;51.894;4.622;2023-03-17T11:39:27;14.40;1.40
38131;DHT22;23947;51.894;4.622;2023-03-17T11:49:38;14.80;1.40
38131;DHT22;23947;51.894;4.622;2023-03-17T11:52:26;14.90;1.40
38131;DHT22;23947;51.894;4.622;2023-03-17T11:59:55;15.10;1.40
38131;DHT22;23947;51.894;4.622;2023-03-17T12:04:56;15.20;1.40
38131;DHT22;23947;51.894;4.622;2023-03-17T12:07:24;15.20;1.40
38131;DHT22;23947;51.894;4.622;2023-03-17T12:10:34;15.30;1.40
38131;DHT22;23947;51.894;4.622;2023-03-17T12:18:33;15.60;1.40
38131;DHT22;23947;51.894;4.622;2023-03-17T12:21:01;15.80;1.40
38131;DHT22;23947;51.894;4.622;2023-03-17T12:26:10;15.90;1.40
38131;DHT22;23947;51.894;4.622;2023-03-17T12:28:41;15.80;1.40
38131;DHT22;23947;51.894;4.622;2023-03-17T12:31:11;15.80;1.40
38131;DHT22;23947;51.894;4.622;2023-03-17T12:36:08;15.60;1.40
38131;DHT22;23947;51.894;4.622;2023-03-17T12:38:39;15.50;1.40
38131;DHT22;23947;51.894;4.622;2023-03-17T12:49:16;15.20;1.40
38131;DHT22;23947;51.894;4.622;2023-03-17T12:51:49;15.20;1.40
38131;DHT22;23947;51.894;4.622;2023-03-17T12:54:19;15.30;1.40
38131;DHT22;23947;51.894;4.622;2023-03-17T12:56:46;15.40;1.40
38131;DHT22;23947;51.894;4.622;2023-03-17T12:59:14;15.50;1.40
38131;DHT22;23947;51.894;4.622;2023-03-17T13:01:44;15.60;1.40
38131;DHT22;23947;51.894;4.622;2023-03-17T13:06:38;15.70;1.40
38131;DHT22;23947;51.894;4.622;2023-03-17T13:11:48;15.90;1.40
38131;DHT22;23947;51.894;4.622;2023-03-17T13:14:15;16.20;1.40
38131;DHT22;23947;51.894;4.622;2023-03-17T13:16:48;16.10;1.40
38131;DHT22;23947;51.894;4.622;2023-03-17T13:19:15;15.90;1.40
38131;DHT22;23947;51.894;4.622;2023-03-17T13:21:45;15.80;1.40
38131;DHT22;23947;51.894;4.622;2023-03-17T13:26:50;15.60;1.40
38131;DHT22;23947;51.894;4.622;2023-03-17T13:29:49;15.50;1.40
38131;DHT22;23947;51.894;4.622;2023-03-17T13:34:49;15.40;1.40
38131;DHT22;23947;51.894;4.622;2023-03-17T13:42:19;15.50;1.40
38131;DHT22;23947;51.894;4.622;2023-03-17T13:49:47;15.80;1.40
38131;DHT22;23947;51.894;4.622;2023-03-17T13:52:15;15.80;1.40
38131;DHT22;23947;51.894;4.622;2023-03-17T13:54:49;15.80;1.40
38131;DHT22;23947;51.894;4.622;2023-03-17T14:02:20;15.90;1.40
38131;DHT22;23947;51.894;4.622;2023-03-17T14:04:53;15.80;1.40
38131;DHT22;23947;51.894;4.622;2023-03-17T14:07:20;15.80;1.40
38131;DHT22;23947;51.894;4.622;2023-03-17T14:09:49;15.90;1.40
38131;DHT22;23947;51.894;4.622;2023-03-17T14:12:20;16.00;1.40
38131;DHT22;23947;51.894;4.622;2023-03-17T14:15:01;16.10;1.40
38131;DHT22;23947;51.894;4.622;2023-03-17T14:17:31;16.30;1.40
38131;DHT22;23947;51.894;4.622;2023-03-17T14:19:59;16.40;1.40
38131;DHT22;23947;51.894;4.622;2023-03-17T14:22:25;16.60;1.40
38131;DHT22;23947;51.894;4.622;2023-03-17T14:24:51;16.70;1.40
38131;DHT22;23947;51.894;4.622;2023-03-17T14:27:17;16.70;1.40
38131;DHT22;23947;51.894;4.622;2023-03-17T14:29:43;17.00;1.40
38131;DHT22;23947;51.894;4.622;2023-03-17T14:32:11;17.20;1.40
38131;DHT22;23947;51.894;4.622;2023-03-17T14:37:32;17.60;1.40
38131;DHT22;23947;51.894;4.622;2023-03-17T14:39:57;17.60;1.40
38131;DHT22;23947;51.894;4.622;2023-03-17T14:42:24;17.70;1.40
38131;DHT22;23947;51.894;4.622;2023-03-17T14:44:58;17.80;1.40
38131;DHT22;23947;51.894;4.622;2023-03-17T14:47:24;17.90;1.40
38131;DHT22;23947;51.894;4.622;2023-03-17T14:49:51;17.80;1.40
38131;DHT22;23947;51.894;4.622;2023-03-17T14:52:22;17.80;1.40
38131;DHT22;23947;51.894;4.622;2023-03-17T14:54:52;17.70;1.40
38131;DHT22;23947;51.894;4.622;2023-03-17T14:57:20;17.70;1.40
38131;DHT22;23947;51.894;4.622;2023-03-17T15:00:00;17.50;1.40
38131;DHT22;23947;51.894;4.622;2023-03-17T15:02:35;17.40;1.40
38131;DHT22;23947;51.894;4.622;2023-03-17T15:07:46;17.10;1.40
38131;DHT22;23947;51.894;4.622;2023-03-17T15:10:18;16.90;1.40
38131;DHT22;23947;51.894;4.622;2023-03-17T15:12:44;16.90;1.40
38131;DHT22;23947;51.894;4.622;2023-03-17T15:15:17;16.80;1.40
38131;DHT22;23947;51.894;4.622;2023-03-17T15:17:45;16.70;1.40
38131;DHT22;23947;51.894;4.622;2023-03-17T15:20:15;16.60;1.40
38131;DHT22;23947;51.894;4.622;2023-03-17T15:22:42;16.50;1.40
38131;DHT22;23947;51.894;4.622;2023-03-17T15:27:42;16.40;1.40
38131;DHT22;23947;51.894;4.622;2023-03-17T15:30:08;16.40;1.40
38131;DHT22;23947;51.894;4.622;2023-03-17T15:32:34;16.30;1.40
38131;DHT22;23947;51.894;4.622;2023-03-17T15:34:59;16.30;1.40
38131;DHT22;23947;51.894;4.622;2023-03-17T15:37:26;16.20;1.40
38131;DHT22;23947;51.894;4.622;2023-03-17T15:39:53;16.20;1.40
38131;DHT22;23947;51.894;4.622;2023-03-17T15:42:20;16.20;1.40
38131;DHT22;23947;51.894;4.622;2023-03-17T15:44:46;16.20;1.40
38131;DHT22;23947;51.894;4.622;2023-03-17T15:47:15;16.10;1.40
38131;DHT22;23947;51.894;4.622;2023-03-17T15:49:42;16.00;1.40
38131;DHT22;23947;51.894;4.622;2023-03-17T15:52:15;15.90;1.40
38131;DHT22;23947;51.894;4.622;2023-03-17T15:54:40;16.00;1.40
38131;DHT22;23947;51.894;4.622;2023-03-17T15:57:07;15.90;1.40
38131;DHT22;23947;51.894;4.622;2023-03-17T15:59:33;15.90;1.40
38131;DHT22;23947;51.894;4.622;2023-03-17T16:01:59;15.80;1.40
38131;DHT22;23947;51.894;4.622;2023-03-17T16:04:25;15.80;1.40
38131;DHT22;23947;51.894;4.622;2023-03-17T16:06:50;15.80;1.40
38131;DHT22;23947;51.894;4.622;2023-03-17T16:09:16;15.80;1.40
38131;DHT22;23947;51.894;4.622;2023-03-17T16:11:41;15.80;1.40
38131;DHT22;23947;51.894;4.622;2023-03-17T16:14:08;15.70;1.40
38131;DHT22;23947;51.894;4.622;2023-03-17T16:16:35;15.70;1.40
38131;DHT22;23947;51.894;4.622;2023-03-17T16:19:01;15.70;1.40
38131;DHT22;23947;51.894;4.622;2023-03-17T16:21:29;15.60;1.40
38131;DHT22;23947;51.894;4.622;2023-03-17T16:23:55;15.70;1.40
38131;DHT22;23947;51.894;4.622;2023-03-17T16:26:22;15.60;1.40
38131;DHT22;23947;51.894;4.622;2023-03-17T16:28:47;15.60;1.40
38131;DHT22;23947;51.894;4.622;2023-03-17T16:31:15;15.60;1.40
38131;DHT22;23947;51.894;4.622;2023-03-17T16:33:41;15.60;1.40
38131;DHT22;23947;51.894;4.622;2023-03-17T16:36:08;15.50;1.40
38131;DHT22;23947;51.894;4.622;2023-03-17T16:38:37;15.40;1.40
38131;DHT22;23947;51.894;4.622;2023-03-17T16:41:06;15.40;1.40
38131;DHT22;23947;51.894;4.622;2023-03-17T16:43:33;15.30;1.40
38131;DHT22;23947;51.894;4.622;2023-03-17T16:46:02;15.30;1.40
38131;DHT22;23947;51.894;4.622;2023-03-17T16:48:28;15.20;1.40
38131;DHT22;23947;51.894;4.622;2023-03-17T16:50:55;15.20;1.40
38131;DHT22;23947;51.894;4.622;2023-03-17T16:53:21;15.10;1.40
38131;DHT22;23947;51.894;4.622;2023-03-17T16:55:46;15.10;1.40
38131;DHT22;23947;51.894;4.622;2023-03-17T17:00:47;15.00;1.40
38131;DHT22;23947;51.894;4.622;2023-03-17T17:03:13;15.00;1.40
38131;DHT22;23947;51.894;4.622;2023-03-17T17:05:38;14.90;1.40
38131;DHT22;23947;51.894;4.622;2023-03-17T17:08:04;14.90;1.40
38131;DHT22;23947;51.894;4.622;2023-03-17T17:10:32;14.90;1.40
38131;DHT22;23947;51.894;4.622;2023-03-17T17:12:59;14.80;1.40
38131;DHT22;23947;51.894;4.622;2023-03-17T17:15:25;14.80;1.40
38131;DHT22;23947;51.894;4.622;2023-03-17T17:17:54;14.80;1.40
38131;DHT22;23947;51.894;4.622;2023-03-17T17:20:22;14.80;1.40
38131;DHT22;23947;51.894;4.622;2023-03-17T17:22:48;14.70;1.40
38131;DHT22;23947;51.894;4.622;2023-03-17T17:25:14;14.70;1.40
38131;DHT22;23947;51.894;4.622;2023-03-17T17:27:40;14.60;1.40
38131;DHT22;23947;51.894;4.622;2023-03-17T17:30:07;14.50;1.40
38131;DHT22;23947;51.894;4.622;2023-03-17T17:32:33;14.50;1.40
38131;DHT22;23947;51.894;4.622;2023-03-17T17:34:58;14.50;1.40
38131;DHT22;23947;51.894;4.622;2023-03-17T17:37:24;14.50;1.40
38131;DHT22;23947;51.894;4.622;2023-03-17T17:39:49;14.50;1.40